Time;durP1;ratioP1;P1;durP2;ratioP2;P2;SDS_P1;SDS_P2;PMS_P1;PMS_P2;Temp;Humidity;BMP_temperature;BMP_pressure;BME280_temperature;BME280_humidity;BME280_pressure;Samples;Min_cycle;Max_cycle;Signal;HPM_P1;HPM_P2
2022/10/30 00:01:55;;;;;;;94.70;67.32;;;8.90;99.90;;;;;;4991506;28;20038;-85
2022/10/30 00:04:24;;;;;;;78.68;56.28;;;8.90;99.90;;;;;;4990185;28;20417;-84
2022/10/30 00:06:51;;;;;;;72.88;50.67;;;8.90;99.90;;;;;;4991081;28;20054;-82
2022/10/30 00:09:19;;;;;;;67.50;49.00;;;8.90;99.90;;;;;;4979384;28;20405;-81
2022/10/30 00:11:46;;;;;;;73.25;50.40;;;8.90;99.90;;;;;;4972297;28;20031;-82
2022/10/30 00:14:13;;;;;;;77.20;51.13;;;8.90;99.90;;;;;;4972558;28;20098;-83
2022/10/30 00:16:40;;;;;;;73.40;50.97;;;8.80;99.90;;;;;;4991583;28;20051;-82
2022/10/30 00:19:08;;;;;;;70.82;49.67;;;8.80;99.90;;;;;;4975751;28;20043;-83
2022/10/30 00:21:36;;;;;;;72.13;48.75;;;8.80;99.90;;;;;;4972082;28;20081;-82
2022/10/30 00:24:04;;;;;;;75.22;49.75;;;8.80;99.90;;;;;;4972087;28;20098;-84
2022/10/30 00:26:32;;;;;;;80.53;56.47;;;8.70;99.90;;;;;;4972060;28;20050;-83
2022/10/30 00:28:59;;;;;;;89.07;57.13;;;8.70;99.90;;;;;;4983235;28;20073;-83
2022/10/30 00:31:27;;;;;;;85.97;58.05;;;8.70;99.90;;;;;;4984182;28;20034;-82
2022/10/30 00:33:55;;;;;;;80.13;56.35;;;8.70;99.90;;;;;;4991363;28;20042;-83
2022/10/30 00:36:23;;;;;;;82.32;54.92;;;8.70;99.90;;;;;;4990178;28;20058;-82
2022/10/30 00:38:52;;;;;;;81.40;53.83;;;8.70;99.90;;;;;;4979968;28;20046;-81
2022/10/30 00:41:23;;;;;;;74.00;50.00;;;8.70;99.90;;;;;;4973928;28;20065;-83
2022/10/30 00:43:51;;;;;;;83.57;54.85;;;8.60;99.90;;;;;;4993321;28;20047;-81
2022/10/30 00:46:23;;;;;;;71.53;49.47;;;8.60;99.90;;;;;;4993804;28;20042;-83
2022/10/30 00:48:55;;;;;;;72.28;51.40;;;8.50;99.90;;;;;;4982028;28;20503;-82
2022/10/30 00:51:24;;;;;;;77.13;52.53;;;8.50;99.90;;;;;;4990243;28;20506;-82
2022/10/30 00:53:53;;;;;;;71.60;48.20;;;8.50;99.90;;;;;;4993028;28;20565;-83
2022/10/30 00:56:22;;;;;;;63.33;45.80;;;8.60;99.90;;;;;;4975970;28;20050;-82
2022/10/30 00:58:53;;;;;;;64.72;45.28;;;8.60;99.90;;;;;;4985026;28;20046;-82
2022/10/30 01:01:25;;;;;;;67.82;46.47;;;8.50;99.90;;;;;;4994719;28;20402;-82
2022/10/30 01:03:56;;;;;;;69.18;48.60;;;8.50;99.90;;;;;;4993431;28;20046;-82
2022/10/30 01:06:25;;;;;;;68.55;48.20;;;8.40;99.90;;;;;;4990573;28;20051;-83
2022/10/30 01:08:55;;;;;;;75.28;48.67;;;8.40;99.90;;;;;;4973738;28;20587;-83
2022/10/30 01:11:22;;;;;;;79.63;52.83;;;8.30;99.90;;;;;;4974281;28;20043;-82
2022/10/30 01:13:53;;;;;;;93.53;62.75;;;8.30;99.90;;;;;;4974183;28;20090;-82
2022/10/30 01:16:37;;;;;;;99.32;64.53;;;8.30;99.90;;;;;;4973923;28;20142;-84
2022/10/30 01:19:19;;;;;;;95.13;61.92;;;8.30;99.90;;;;;;4976962;28;20057;-82
2022/10/30 01:22:01;;;;;;;86.60;59.67;;;8.40;99.90;;;;;;4992990;28;20047;-84
2022/10/30 01:24:46;;;;;;;89.07;60.00;;;8.40;99.90;;;;;;4994411;28;20069;-82
2022/10/30 01:27:31;;;;;;;86.45;57.45;;;8.30;99.90;;;;;;4987456;28;20057;-84
2022/10/30 01:30:11;;;;;;;86.13;57.70;;;8.30;99.90;;;;;;4973272;28;20506;-83
2022/10/30 01:32:47;;;;;;;87.07;57.50;;;8.30;99.90;;;;;;4983298;28;20042;-84
2022/10/30 01:35:21;;;;;;;76.55;48.60;;;8.30;99.90;;;;;;4994157;28;20126;-84
2022/10/30 01:37:54;;;;;;;84.85;52.70;;;8.20;99.90;;;;;;4992813;28;20054;-83
2022/10/30 01:40:25;;;;;;;83.00;53.03;;;8.20;99.90;;;;;;4990634;28;20137;-83
2022/10/30 01:42:56;;;;;;;76.85;52.00;;;8.20;99.90;;;;;;4992616;28;20051;-82
2022/10/30 01:45:59;;;;;;;68.50;47.90;;;8.20;99.90;;;;;;4992895;28;20046;-83
2022/10/30 01:49:02;;;;;;;59.80;44.08;;;8.10;99.90;;;;;;4993688;28;20114;-82
2022/10/30 01:51:41;;;;;;;59.83;42.95;;;8.20;99.90;;;;;;4987304;28;20051;-83
2022/10/30 01:54:19;;;;;;;65.90;45.58;;;8.10;99.90;;;;;;4980037;28;20038;-83
2022/10/30 01:57:01;;;;;;;68.25;43.25;;;8.20;99.90;;;;;;4994875;28;20050;-83
2022/10/30 01:59:35;;;;;;;67.70;44.88;;;8.20;99.90;;;;;;4993120;28;20046;-81
2022/10/30 02:02:03;;;;;;;66.00;44.00;;;8.20;99.90;;;;;;4997175;28;20046;-84
2022/10/30 02:04:32;;;;;;;60.67;41.38;;;8.20;99.90;;;;;;4986448;28;20047;-84
2022/10/30 02:06:59;;;;;;;54.38;37.65;;;8.10;99.90;;;;;;4989642;28;20443;-81
2022/10/30 02:09:27;;;;;;;58.20;40.80;;;8.20;99.90;;;;;;4989969;28;20047;-83
2022/10/30 02:11:56;;;;;;;59.28;43.05;;;8.20;99.90;;;;;;4994031;28;20070;-83
2022/10/30 02:14:27;;;;;;;62.90;41.40;;;8.30;99.90;;;;;;4993555;28;20058;-83
2022/10/30 02:16:57;;;;;;;58.42;40.78;;;8.20;99.90;;;;;;4996829;28;20057;-83
2022/10/30 02:19:25;;;;;;;60.88;41.78;;;8.20;99.90;;;;;;4987571;28;20046;-83
2022/10/30 02:21:55;;;;;;;65.55;43.10;;;8.10;99.90;;;;;;4984637;28;20058;-80
2022/10/30 02:24:23;;;;;;;60.72;41.95;;;8.10;99.90;;;;;;4983658;28;20039;-82
2022/10/30 02:26:50;;;;;;;66.53;42.03;;;8.10;99.90;;;;;;4994815;28;20051;-83
2022/10/30 02:29:19;;;;;;;62.15;44.38;;;8.10;99.90;;;;;;4978229;28;20077;-84
2022/10/30 02:31:46;;;;;;;66.90;44.60;;;8.00;99.90;;;;;;4993241;28;20050;-83
2022/10/30 02:34:14;;;;;;;60.63;42.97;;;8.00;99.90;;;;;;4985518;28;20061;-84
2022/10/30 02:36:41;;;;;;;64.30;45.65;;;7.90;99.90;;;;;;4975097;28;20082;-83
2022/10/30 02:39:09;;;;;;;65.28;42.78;;;7.90;99.90;;;;;;4992073;28;20502;-83
2022/10/30 02:41:37;;;;;;;61.83;42.22;;;7.90;99.90;;;;;;4991662;28;20482;-83
2022/10/30 02:44:06;;;;;;;62.63;41.63;;;7.90;99.90;;;;;;4981099;28;20110;-82
2022/10/30 02:46:34;;;;;;;63.78;40.25;;;7.90;99.90;;;;;;4988292;28;20046;-83
2022/10/30 02:49:01;;;;;;;64.18;41.00;;;7.90;99.90;;;;;;4992738;28;20135;-81
2022/10/30 02:54:06;;;;;;;58.13;39.05;;;7.90;99.90;;;;;;4969250;28;20490;-81
2022/10/30 02:56:36;;;;;;;59.10;41.00;;;7.90;99.90;;;;;;4955987;28;20094;-80
2022/10/30 02:59:04;;;;;;;56.83;38.97;;;7.90;99.90;;;;;;4956253;28;20137;-80
2022/10/30 03:01:31;;;;;;;58.60;41.08;;;7.90;99.90;;;;;;4956660;28;20050;-80
2022/10/30 03:04:00;;;;;;;64.57;42.08;;;7.90;99.90;;;;;;4956231;28;20138;-83
2022/10/30 03:06:27;;;;;;;65.05;42.38;;;7.80;99.90;;;;;;4957492;28;20137;-84
2022/10/30 03:08:54;;;;;;;59.65;41.40;;;7.70;99.90;;;;;;4974764;28;20141;-83
2022/10/30 03:11:22;;;;;;;58.78;40.78;;;7.70;99.90;;;;;;4975074;28;20046;-84
2022/10/30 03:13:51;;;;;;;61.67;39.80;;;7.70;99.90;;;;;;4957575;28;20328;-84
2022/10/30 03:16:20;;;;;;;61.92;42.00;;;7.70;99.90;;;;;;4956952;28;20066;-83
2022/10/30 03:18:47;;;;;;;61.13;42.55;;;7.70;99.90;;;;;;4956427;28;20051;-82
2022/10/30 03:21:17;;;;;;;65.30;44.45;;;7.70;99.90;;;;;;4962526;28;20043;-82
2022/10/30 03:23:45;;;;;;;60.78;41.22;;;7.70;99.90;;;;;;4966072;28;20129;-81
2022/10/30 03:26:12;;;;;;;64.13;43.58;;;7.60;99.90;;;;;;4978314;28;20044;-83
2022/10/30 03:28:49;;;;;;;62.15;41.60;;;7.60;99.90;;;;;;4958328;28;20054;-85
2022/10/30 03:31:18;;;;;;;58.38;40.78;;;7.60;99.90;;;;;;4960472;28;20129;-83
2022/10/30 03:33:48;;;;;;;56.38;38.83;;;7.70;99.90;;;;;;4972245;28;20035;-82
2022/10/30 03:36:15;;;;;;;54.65;36.42;;;7.70;99.90;;;;;;4979067;28;20506;-81
2022/10/30 03:38:43;;;;;;;51.00;36.53;;;7.70;99.90;;;;;;4977383;28;20066;-81
2022/10/30 03:41:14;;;;;;;55.15;38.45;;;7.80;99.90;;;;;;4980962;28;20035;-81
2022/10/30 03:43:42;;;;;;;55.33;39.33;;;7.70;99.90;;;;;;4994896;28;20046;-81
2022/10/30 03:46:10;;;;;;;55.58;38.03;;;7.80;99.90;;;;;;4973812;28;20209;-81
2022/10/30 03:48:41;;;;;;;52.72;36.10;;;7.80;99.90;;;;;;4957680;28;20054;-81
2022/10/30 03:51:09;;;;;;;48.70;34.60;;;7.80;99.90;;;;;;4958465;28;20053;-80
2022/10/30 03:53:37;;;;;;;51.42;36.60;;;7.80;99.90;;;;;;4938214;29;20067;-79
2022/10/30 03:56:05;;;;;;;49.33;34.78;;;7.80;99.90;;;;;;4933543;29;20044;-79
2022/10/30 03:58:44;;;;;;;52.20;34.92;;;7.70;99.90;;;;;;4933827;29;20048;-78
2022/10/30 04:01:14;;;;;;;52.55;35.75;;;7.70;99.90;;;;;;4933810;29;20151;-79
2022/10/30 04:03:45;;;;;;;52.67;37.15;;;7.60;99.90;;;;;;4934590;29;20508;-82
2022/10/30 04:06:13;;;;;;;53.00;36.72;;;7.60;99.90;;;;;;4936324;29;20448;-81
2022/10/30 04:08:46;;;;;;;52.60;36.90;;;7.60;99.90;;;;;;4937134;29;20055;-80
2022/10/30 04:11:13;;;;;;;51.50;37.13;;;7.50;99.90;;;;;;4934110;29;20078;-79
2022/10/30 04:13:41;;;;;;;51.40;37.47;;;7.50;99.90;;;;;;4933993;29;20059;-79
2022/10/30 04:16:09;;;;;;;51.42;37.72;;;7.40;99.90;;;;;;4936036;29;20040;-79
2022/10/30 04:18:36;;;;;;;59.58;41.20;;;7.50;99.90;;;;;;4948243;29;20044;-79
2022/10/30 04:21:07;;;;;;;58.45;41.45;;;7.50;99.90;;;;;;4948872;29;20091;-81
2022/10/30 04:23:36;;;;;;;57.03;37.72;;;7.60;99.90;;;;;;4947416;29;20059;-79
2022/10/30 04:26:04;;;;;;;52.53;36.92;;;7.50;99.90;;;;;;4947503;29;20044;-78
2022/10/30 04:28:32;;;;;;;56.72;36.90;;;7.50;99.90;;;;;;4948182;29;20044;-79
2022/10/30 04:30:59;;;;;;;58.70;39.28;;;7.50;99.90;;;;;;4949031;29;20043;-81
2022/10/30 04:33:28;;;;;;;65.72;41.53;;;7.40;99.90;;;;;;4948633;29;20071;-80
2022/10/30 04:35:56;;;;;;;62.47;41.40;;;7.40;99.90;;;;;;4949075;29;20044;-80
2022/10/30 04:38:25;;;;;;;60.55;42.45;;;7.40;99.90;;;;;;4949878;29;20078;-81
2022/10/30 04:40:53;;;;;;;64.90;43.55;;;7.40;99.90;;;;;;4949423;29;20048;-81
2022/10/30 04:43:20;;;;;;;69.78;44.28;;;7.40;99.90;;;;;;4948895;29;20043;-80
2022/10/30 04:45:52;;;;;;;66.13;45.03;;;7.30;99.90;;;;;;4945968;29;20044;-81
2022/10/30 04:48:19;;;;;;;91.80;43.85;;;7.30;99.90;;;;;;4938848;29;20103;-80
2022/10/30 04:50:48;;;;;;;96.30;47.20;;;7.20;99.90;;;;;;4938155;29;20095;-82
2022/10/30 04:53:26;;;;;;;86.63;51.40;;;7.20;99.90;;;;;;4953536;29;20052;-81
2022/10/30 04:56:00;;;;;;;74.32;47.67;;;7.20;99.90;;;;;;4956721;29;20111;-81
2022/10/30 04:58:28;;;;;;;82.18;48.78;;;7.20;99.90;;;;;;4941371;29;20043;-83
2022/10/30 05:01:06;;;;;;;94.18;49.17;;;7.30;99.90;;;;;;4937415;29;20044;-81
2022/10/30 05:03:35;;;;;;;80.68;47.30;;;7.40;99.90;;;;;;4936947;29;20047;-82
2022/10/30 05:06:13;;;;;;;83.78;48.38;;;7.40;99.90;;;;;;4936980;29;20063;-82
2022/10/30 05:08:43;;;;;;;76.82;40.55;;;7.50;99.90;;;;;;4937398;29;20074;-81
2022/10/30 05:11:22;;;;;;;64.75;41.10;;;7.50;99.90;;;;;;4940303;29;20078;-83
2022/10/30 05:13:49;;;;;;;73.22;42.00;;;7.50;99.90;;;;;;4936761;29;20040;-82
2022/10/30 05:16:17;;;;;;;70.72;44.47;;;7.40;99.90;;;;;;4937079;29;20070;-79
2022/10/30 05:18:45;;;;;;;70.68;46.25;;;7.40;99.90;;;;;;4937912;29;20084;-80
2022/10/30 05:21:13;;;;;;;66.05;43.47;;;7.40;99.90;;;;;;4940259;29;20040;-81
2022/10/30 05:23:40;;;;;;;63.35;41.22;;;7.40;99.90;;;;;;4945278;29;20126;-81
2022/10/30 05:26:09;;;;;;;59.75;42.28;;;7.40;99.90;;;;;;4937110;29;20040;-81
2022/10/30 05:28:37;;;;;;;58.40;41.33;;;7.40;99.90;;;;;;4941783;29;20048;-82
2022/10/30 05:31:05;;;;;;;59.25;43.30;;;7.40;99.90;;;;;;4935214;29;20069;-81
2022/10/30 05:33:53;;;;;;;60.85;41.63;;;7.40;99.90;;;;;;4914650;29;20051;-79
2022/10/30 05:36:22;;;;;;;66.25;42.75;;;7.40;99.90;;;;;;4935347;29;20134;-79
2022/10/30 05:38:50;;;;;;;65.07;41.72;;;7.40;99.90;;;;;;4934483;29;20059;-79
2022/10/30 05:41:30;;;;;;;74.03;45.25;;;7.40;99.90;;;;;;4936345;29;20043;-81
2022/10/30 05:43:57;;;;;;;68.38;43.22;;;7.50;99.90;;;;;;4934472;29;20055;-81
2022/10/30 05:46:26;;;;;;;60.33;41.03;;;7.60;99.90;;;;;;4935445;29;20048;-78
2022/10/30 05:48:55;;;;;;;64.82;39.78;;;7.60;99.90;;;;;;4934801;29;20510;-79
2022/10/30 05:51:23;;;;;;;59.33;40.00;;;7.60;99.90;;;;;;4935538;29;20075;-76
2022/10/30 05:53:55;;;;;;;60.08;39.88;;;7.70;99.90;;;;;;4968023;28;20583;-79
2022/10/30 05:56:26;;;;;;;60.97;40.83;;;7.80;99.90;;;;;;4956886;28;20039;-78
2022/10/30 05:58:58;;;;;;;81.10;42.45;;;7.80;99.90;;;;;;4948087;28;20157;-78
2022/10/30 06:01:26;;;;;;;97.65;44.78;;;7.90;99.90;;;;;;4975519;28;20047;-77
2022/10/30 06:03:58;;;;;;;65.40;39.15;;;7.90;99.90;;;;;;4957968;28;20057;-80
2022/10/30 06:06:26;;;;;;;66.10;41.67;;;7.90;99.90;;;;;;4973870;28;20069;-81
2022/10/30 06:08:53;;;;;;;68.60;42.28;;;7.90;99.90;;;;;;4969498;28;20047;-81
2022/10/30 06:11:43;;;;;;;65.25;41.05;;;8.00;99.90;;;;;;4972480;28;20134;-78
2022/10/30 06:14:13;;;;;;;65.75;41.92;;;8.00;99.90;;;;;;4958471;28;20138;-80
2022/10/30 06:16:50;;;;;;;71.35;44.20;;;8.10;99.90;;;;;;4955795;28;20511;-80
2022/10/30 06:19:23;;;;;;;68.97;43.65;;;8.20;99.90;;;;;;4978789;28;20042;-78
2022/10/30 06:21:53;;;;;;;71.25;45.53;;;8.20;99.90;;;;;;4957403;28;20051;-78
2022/10/30 06:24:50;;;;;;;64.40;41.15;;;8.20;99.90;;;;;;4964651;28;20074;-79
2022/10/30 06:27:17;;;;;;;61.00;40.92;;;8.30;99.90;;;;;;4971393;28;20043;-79
2022/10/30 06:29:46;;;;;;;72.22;43.72;;;8.50;99.90;;;;;;4958969;28;20089;-79
2022/10/30 06:32:14;;;;;;;72.93;44.67;;;8.60;99.90;;;;;;4954805;28;20053;-78
2022/10/30 06:34:43;;;;;;;74.53;46.92;;;8.70;99.90;;;;;;4956290;28;20043;-78
2022/10/30 06:37:12;;;;;;;66.05;44.80;;;8.80;99.90;;;;;;4956879;28;20043;-79
2022/10/30 06:39:39;;;;;;;61.47;39.75;;;8.80;99.90;;;;;;4955276;28;20411;-79
2022/10/30 06:42:26;;;;;;;57.33;39.97;;;8.90;99.90;;;;;;4966379;28;20101;-78
2022/10/30 06:45:08;;;;;;;58.75;42.67;;;8.90;99.90;;;;;;4955576;28;20038;-77
2022/10/30 06:47:36;;;;;;;61.97;41.78;;;9.00;99.90;;;;;;4985885;28;20030;-78
2022/10/30 06:50:03;;;;;;;41.30;31.70;;;9.10;99.90;;;;;;4976915;28;20058;-81
2022/10/30 06:52:31;;;;;;;44.65;32.40;;;9.20;99.90;;;;;;4979865;28;20050;-82
2022/10/30 06:54:59;;;;;;;44.65;32.63;;;9.30;99.90;;;;;;4976949;28;20101;-79
2022/10/30 06:57:56;;;;;;;45.88;33.45;;;9.40;99.90;;;;;;4975834;28;20129;-81
2022/10/30 07:00:44;;;;;;;57.72;36.80;;;9.70;99.90;;;;;;4974765;28;20054;-77
2022/10/30 07:03:22;;;;;;;47.20;33.75;;;9.80;99.90;;;;;;4956017;28;20039;-82
2022/10/30 07:05:51;;;;;;;44.08;33.08;;;9.90;99.90;;;;;;4956677;28;20081;-80
2022/10/30 07:08:19;;;;;;;45.40;32.70;;;10.10;99.90;;;;;;4956573;28;20180;-79
2022/10/30 07:10:46;;;;;;;38.80;29.00;;;10.40;99.90;;;;;;4956015;28;20066;-78
2022/10/30 07:13:28;;;;;;;39.08;28.05;;;10.70;99.90;;;;;;4955541;28;20082;-79
2022/10/30 07:16:29;;;;;;;44.53;29.60;;;10.90;99.90;;;;;;4938834;28;20050;-79
2022/10/30 07:18:57;;;;;;;40.92;30.15;;;11.10;99.90;;;;;;4955278;28;20094;-78
2022/10/30 07:21:26;;;;;;;45.58;33.15;;;11.20;99.90;;;;;;4952231;28;20042;-76
2022/10/30 07:23:54;;;;;;;46.28;32.80;;;11.30;99.90;;;;;;4948107;28;20051;-74
2022/10/30 07:26:44;;;;;;;48.72;36.35;;;11.40;99.90;;;;;;4972480;28;20053;-80
2022/10/30 07:29:41;;;;;;;50.25;35.13;;;11.60;99.90;;;;;;4951719;28;20058;-77
2022/10/30 07:32:18;;;;;;;50.35;36.47;;;11.80;99.90;;;;;;4943039;29;20054;-73
2022/10/30 07:35:04;;;;;;;53.78;36.97;;;11.90;99.90;;;;;;4972883;28;20124;-77
2022/10/30 07:37:54;;;;;;;48.45;33.28;;;12.00;99.90;;;;;;4963708;28;20067;-77
2022/10/30 07:40:32;;;;;;;51.33;36.40;;;12.30;99.90;;;;;;4957444;28;20039;-76
2022/10/30 07:43:09;;;;;;;52.28;34.08;;;12.50;99.90;;;;;;4955462;28;20057;-75
2022/10/30 07:45:56;;;;;;;42.08;32.35;;;12.70;99.90;;;;;;4916222;28;20511;-75
2022/10/30 07:48:39;;;;;;;39.33;29.88;;;12.80;99.90;;;;;;4953347;28;20570;-75
2022/10/30 07:51:10;;;;;;;37.03;29.13;;;12.90;99.90;;;;;;4972568;28;20027;-77
2022/10/30 07:53:38;;;;;;;41.25;30.67;;;13.10;99.90;;;;;;4958460;28;20509;-76
2022/10/30 07:56:06;;;;;;;39.97;31.48;;;13.20;99.90;;;;;;4959109;28;20051;-78
2022/10/30 07:58:52;;;;;;;45.28;30.55;;;13.30;99.90;;;;;;4976171;28;20077;-77
2022/10/30 08:01:32;;;;;;;37.28;28.98;;;13.40;99.90;;;;;;4975633;28;20042;-76
2022/10/30 08:04:13;;;;;;;43.95;30.90;;;13.60;99.90;;;;;;4957527;28;20058;-79
2022/10/30 08:06:41;;;;;;;35.45;27.42;;;13.70;99.90;;;;;;4957538;28;20473;-76
2022/10/30 08:09:08;;;;;;;38.15;28.00;;;13.90;99.90;;;;;;4958188;28;20102;-78
2022/10/30 08:11:36;;;;;;;37.92;27.55;;;14.00;99.90;;;;;;4958308;28;20082;-78
2022/10/30 08:14:05;;;;;;;35.30;27.30;;;14.20;99.90;;;;;;4959222;28;20053;-75
2022/10/30 08:16:32;;;;;;;36.67;27.17;;;14.30;99.90;;;;;;4959602;28;20053;-74
2022/10/30 08:19:01;;;;;;;37.13;27.08;;;14.50;99.90;;;;;;4976135;28;20130;-74
2022/10/30 08:21:31;;;;;;;32.17;23.88;;;14.70;99.90;;;;;;4958524;28;20055;-75
2022/10/30 08:24:02;;;;;;;33.95;24.58;;;14.90;99.90;;;;;;4977249;28;20499;-75
2022/10/30 08:26:32;;;;;;;32.00;23.20;;;15.20;99.90;;;;;;4960170;28;20051;-76
2022/10/30 08:29:00;;;;;;;35.17;24.15;;;15.40;99.90;;;;;;4944239;28;20054;-77
2022/10/30 08:31:29;;;;;;;42.00;26.83;;;15.50;99.90;;;;;;4962718;28;20047;-77
2022/10/30 08:34:21;;;;;;;37.58;26.45;;;15.50;99.90;;;;;;4914660;29;20063;-76
2022/10/30 08:36:56;;;;;;;33.13;24.45;;;15.50;99.90;;;;;;4940056;29;20491;-76
2022/10/30 08:39:25;;;;;;;34.90;24.08;;;15.60;99.90;;;;;;4965635;28;20401;-76
2022/10/30 08:42:03;;;;;;;30.38;23.27;;;15.80;99.90;;;;;;4960086;28;20046;-76
2022/10/30 08:44:37;;;;;;;34.40;24.52;;;15.90;99.90;;;;;;4960666;28;20074;-76
2022/10/30 08:47:23;;;;;;;32.42;23.85;;;16.10;99.90;;;;;;4977255;28;20061;-75
2022/10/30 08:49:51;;;;;;;33.70;23.88;;;16.40;99.90;;;;;;4959934;28;20142;-77
2022/10/30 08:52:23;;;;;;;28.25;22.02;;;16.50;99.90;;;;;;4944594;28;20050;-76
2022/10/30 08:54:55;;;;;;;33.50;25.38;;;16.70;99.90;;;;;;4959966;28;20046;-76
2022/10/30 08:57:25;;;;;;;32.70;24.88;;;16.90;99.90;;;;;;4959025;28;20043;-78
2022/10/30 08:59:55;;;;;;;30.85;22.27;;;17.20;99.90;;;;;;4958633;28;20074;-76
2022/10/30 09:02:44;;;;;;;29.90;21.35;;;17.50;99.90;;;;;;4975002;28;20482;-76
2022/10/30 09:05:29;;;;;;;29.80;20.40;;;17.80;99.90;;;;;;4976467;28;20517;-76
2022/10/30 09:08:37;;;;;;;28.40;20.70;;;18.30;99.90;;;;;;4978334;28;20054;-77
2022/10/30 09:11:18;;;;;;;31.25;21.33;;;18.90;99.90;;;;;;4960080;28;20101;-78
2022/10/30 09:13:45;;;;;;;25.60;20.15;;;19.30;99.90;;;;;;4963800;28;20050;-77
2022/10/30 09:16:13;;;;;;;28.00;20.35;;;19.30;99.90;;;;;;4951731;28;20042;-78
2022/10/30 09:18:41;;;;;;;30.20;22.25;;;19.50;99.90;;;;;;4968905;28;20150;-77
2022/10/30 09:21:09;;;;;;;28.10;21.85;;;19.70;99.90;;;;;;4984688;28;20057;-79
2022/10/30 09:23:45;;;;;;;28.92;21.10;;;19.90;99.90;;;;;;4969080;28;20047;-78
2022/10/30 09:26:32;;;;;;;35.33;22.63;;;20.00;99.90;;;;;;4984279;28;20061;-79
2022/10/30 09:29:12;;;;;;;207.40;46.50;;;20.10;99.90;;;;;;4959891;28;20050;-79
2022/10/30 09:31:58;;;;;;;33.95;27.67;;;19.90;99.90;;;;;;4979068;28;20541;-78
2022/10/30 09:34:27;;;;;;;34.42;26.02;;;19.70;99.90;;;;;;4965149;28;20057;-78
2022/10/30 09:37:00;;;;;;;32.92;25.40;;;19.50;99.90;;;;;;4963045;28;20043;-78
2022/10/30 09:39:29;;;;;;;35.97;27.48;;;19.20;99.90;;;;;;4960254;28;20054;-78
2022/10/30 09:42:15;;;;;;;32.40;24.73;;;19.10;99.90;;;;;;4957728;28;20465;-77
2022/10/30 09:44:59;;;;;;;42.35;26.05;;;19.00;99.90;;;;;;4958581;28;20162;-77
2022/10/30 09:47:35;;;;;;;32.83;25.70;;;19.00;99.90;;;;;;4958368;28;20490;-79
2022/10/30 09:50:16;;;;;;;38.17;26.98;;;18.90;99.90;;;;;;4958359;28;20055;-79
2022/10/30 09:52:57;;;;;;;27.17;20.75;;;19.00;99.90;;;;;;4958711;28;20078;-77
2022/10/30 09:55:34;;;;;;;29.10;18.00;;;19.10;99.90;;;;;;4959204;28;20142;-77
2022/10/30 09:58:17;;;;;;;27.42;18.83;;;19.20;99.90;;;;;;4973691;28;20054;-77
2022/10/30 10:00:51;;;;;;;27.50;17.67;;;19.30;99.00;;;;;;4964172;28;20041;-76
2022/10/30 10:03:37;;;;;;;23.92;16.35;;;19.30;98.80;;;;;;4966833;28;20055;-77
2022/10/30 10:06:47;;;;;;;22.88;13.02;;;19.40;97.20;;;;;;4978915;28;20434;-77
2022/10/30 10:09:26;;;;;;;24.50;15.40;;;19.50;93.90;;;;;;4958305;28;20043;-77
2022/10/30 10:12:37;;;;;;;27.10;17.88;;;19.50;93.80;;;;;;4877709;29;20092;-78
2022/10/30 10:15:11;;;;;;;25.42;16.77;;;19.50;94.00;;;;;;4946584;28;20051;-79
2022/10/30 10:17:44;;;;;;;22.30;15.20;;;19.50;93.10;;;;;;4975290;28;20043;-77
2022/10/30 10:20:17;;;;;;;25.50;15.48;;;19.60;92.80;;;;;;4956481;28;20074;-79
2022/10/30 10:22:49;;;;;;;19.98;14.68;;;19.60;93.90;;;;;;4974097;28;20413;-78
2022/10/30 10:25:19;;;;;;;24.83;17.05;;;19.70;94.20;;;;;;4957003;28;20078;-78
2022/10/30 10:28:03;;;;;;;25.38;18.83;;;19.70;95.10;;;;;;4974177;28;20066;-78
2022/10/30 10:30:37;;;;;;;28.88;22.38;;;19.80;96.00;;;;;;4974119;28;20074;-77
2022/10/30 10:33:36;;;;;;;32.25;22.70;;;19.90;96.40;;;;;;4957742;28;20498;-76
2022/10/30 10:36:22;;;;;;;25.27;19.05;;;20.00;97.40;;;;;;4975199;28;20034;-77
2022/10/30 10:39:03;;;;;;;24.38;18.55;;;20.10;98.80;;;;;;4970704;28;20117;-77
2022/10/30 10:41:49;;;;;;;28.42;19.98;;;20.20;95.80;;;;;;4956351;28;20110;-76
2022/10/30 10:44:31;;;;;;;25.58;19.67;;;20.30;96.10;;;;;;4956979;28;20051;-77
2022/10/30 10:47:22;;;;;;;26.65;19.88;;;20.40;96.70;;;;;;4956068;28;20043;-77
2022/10/30 10:50:03;;;;;;;28.73;22.63;;;20.50;97.50;;;;;;4972940;28;20094;-78
2022/10/30 10:52:37;;;;;;;28.52;21.30;;;20.50;97.80;;;;;;4973982;28;20062;-79
2022/10/30 10:55:10;;;;;;;28.42;19.60;;;20.60;98.00;;;;;;4974283;28;20095;-77
2022/10/30 10:57:41;;;;;;;33.00;20.35;;;20.70;96.00;;;;;;4974199;28;20061;-77
2022/10/30 11:00:16;;;;;;;26.10;17.45;;;20.70;94.30;;;;;;4973566;28;20557;-80
2022/10/30 11:02:51;;;;;;;25.45;17.33;;;20.70;92.10;;;;;;4981134;28;20542;-77
2022/10/30 11:05:26;;;;;;;23.58;17.00;;;20.80;91.10;;;;;;4976296;28;20066;-77
2022/10/30 11:07:57;;;;;;;23.13;15.68;;;20.80;90.80;;;;;;4973897;28;20094;-77
2022/10/30 11:10:25;;;;;;;24.92;17.15;;;20.80;90.30;;;;;;4972910;28;20129;-76
2022/10/30 11:12:52;;;;;;;41.92;23.83;;;20.90;90.20;;;;;;4973731;28;20039;-80
2022/10/30 11:15:33;;;;;;;26.30;18.85;;;20.90;90.40;;;;;;4973040;28;20058;-77
2022/10/30 11:18:03;;;;;;;36.33;16.98;;;21.00;90.70;;;;;;4973560;28;20047;-77
2022/10/30 11:20:38;;;;;;;26.00;16.17;;;21.00;90.30;;;;;;4973864;28;20052;-77
2022/10/30 11:23:32;;;;;;;29.95;17.75;;;21.10;85.20;;;;;;4973659;28;20047;-78
2022/10/30 11:25:59;;;;;;;32.65;16.58;;;21.20;82.10;;;;;;4974209;28;20268;-77
2022/10/30 11:28:39;;;;;;;24.83;14.50;;;21.20;77.30;;;;;;4976671;28;20117;-76
2022/10/30 11:31:22;;;;;;;22.13;12.57;;;21.30;74.00;;;;;;4974032;28;20057;-77
2022/10/30 11:33:50;;;;;;;32.55;11.77;;;21.30;72.40;;;;;;4974810;28;20042;-76
2022/10/30 11:36:20;;;;;;;19.83;10.32;;;21.30;70.00;;;;;;4977879;28;20070;-78
2022/10/30 11:38:47;;;;;;;17.75;8.82;;;21.30;68.50;;;;;;4973282;28;20101;-78
2022/10/30 11:41:16;;;;;;;19.75;12.30;;;21.40;66.50;;;;;;4958295;28;20143;-79
2022/10/30 11:43:44;;;;;;;22.45;13.98;;;21.50;68.00;;;;;;4956096;28;20046;-79
2022/10/30 11:46:20;;;;;;;22.95;13.35;;;21.50;67.60;;;;;;4973980;28;20106;-78
2022/10/30 11:48:53;;;;;;;23.05;15.55;;;21.50;67.10;;;;;;4971997;28;20141;-77
2022/10/30 11:51:46;;;;;;;23.60;15.85;;;21.50;67.80;;;;;;4955685;28;20558;-78
2022/10/30 11:54:20;;;;;;;25.20;18.27;;;21.60;67.90;;;;;;4942327;28;20051;-78
2022/10/30 11:56:49;;;;;;;26.83;15.55;;;21.50;67.40;;;;;;4940117;28;20078;-77
2022/10/30 11:59:20;;;;;;;17.23;9.90;;;21.50;66.10;;;;;;4972277;28;20046;-77
2022/10/30 12:02:00;;;;;;;13.80;8.20;;;21.50;65.10;;;;;;4955502;28;20137;-78
2022/10/30 12:04:31;;;;;;;24.90;18.05;;;21.60;65.40;;;;;;4973142;28;20035;-77
2022/10/30 12:07:15;;;;;;;11.63;6.40;;;21.60;63.80;;;;;;4972666;28;20070;-77
2022/10/30 12:09:43;;;;;;;11.05;6.53;;;21.60;63.40;;;;;;4954654;28;20051;-78
2022/10/30 12:12:12;;;;;;;12.98;8.32;;;21.70;62.30;;;;;;4972466;28;20524;-77
2022/10/30 12:14:40;;;;;;;17.35;9.70;;;21.80;61.40;;;;;;4972532;28;20050;-78
2022/10/30 12:17:07;;;;;;;13.88;9.40;;;21.90;60.30;;;;;;4973452;28;20031;-79
2022/10/30 12:19:36;;;;;;;14.13;9.68;;;21.90;59.50;;;;;;4971860;28;20038;-78
2022/10/30 12:22:04;;;;;;;11.02;6.75;;;22.00;58.50;;;;;;4972269;28;20039;-76
2022/10/30 12:24:35;;;;;;;17.85;11.05;;;22.00;57.90;;;;;;4972349;28;20045;-78
2022/10/30 12:27:05;;;;;;;15.80;9.18;;;22.00;58.00;;;;;;4972084;28;20102;-77
2022/10/30 12:29:39;;;;;;;14.82;9.45;;;22.00;57.70;;;;;;4971998;28;20388;-78
2022/10/30 12:32:11;;;;;;;14.20;9.00;;;22.10;58.50;;;;;;4972374;28;20047;-81
2022/10/30 12:34:46;;;;;;;16.15;8.93;;;22.10;59.10;;;;;;4972565;28;20101;-78
2022/10/30 12:37:18;;;;;;;12.52;7.00;;;22.10;58.20;;;;;;4973756;28;20047;-78
2022/10/30 12:39:55;;;;;;;13.50;7.90;;;22.10;57.00;;;;;;4976061;28;20070;-78
2022/10/30 12:42:24;;;;;;;10.75;7.22;;;22.20;57.00;;;;;;4977183;28;20039;-79
2022/10/30 12:44:59;;;;;;;11.45;7.43;;;22.30;56.90;;;;;;4981732;28;20296;-79
2022/10/30 12:47:33;;;;;;;17.02;7.47;;;22.20;56.20;;;;;;4995051;28;20104;-79
2022/10/30 12:50:06;;;;;;;17.55;7.65;;;22.30;56.00;;;;;;4997700;28;20058;-78
2022/10/30 12:52:38;;;;;;;13.02;7.85;;;22.30;54.70;;;;;;4982412;28;20057;-80
2022/10/30 12:55:14;;;;;;;11.75;7.07;;;22.30;54.40;;;;;;4977453;28;20043;-77
2022/10/30 12:57:46;;;;;;;9.43;6.15;;;22.40;53.00;;;;;;4959074;28;20046;-78
2022/10/30 13:00:16;;;;;;;11.95;6.95;;;22.40;52.40;;;;;;4957084;28;20457;-78
2022/10/30 13:02:51;;;;;;;17.05;7.70;;;22.40;53.30;;;;;;4976254;28;20498;-79
2022/10/30 13:05:32;;;;;;;16.17;10.40;;;22.40;54.70;;;;;;4980379;28;20395;-78
2022/10/30 13:08:17;;;;;;;19.92;12.73;;;22.50;57.00;;;;;;4974930;28;20043;-79